Laguepe — 9HAI9 — position and weather

sailwx.info

Track history (hours):
 
Tides and Currents Weather Stations Pressure Air Temp Water Temp Dewpoint Dewpoint Depression Visibility Wind Speed Wind Dir Waves Ship Positions

Laguepe

Last reported at 2016-Sep-28 08:33 UTC. Time now 2016-Sep-30 18:43 UTC.
Position N 43°09' E 005°14'.

Length 81 m; draft 3.2 m.

Type: Cargo ship. MMSI: 256681000.

Date/timePositionNaut miles runAvg speedWind from/ knotsBaromVisibWave heightAir tempDewpointWater temp
2016-Sep-28 08:33N 43°09' E 005°14'92 7.1
2016-Sep-27 19:33N 43°25' E 007°19'74 8.2
2016-Sep-27 10:33N 44°19' E 008°30'0 0.0
2016-Sep-27 00:33N 44°19' E 008°30'0 0.0
2016-Sep-26 20:33N 44°19' E 008°30'0 0.0
2016-Sep-26 19:33N 44°19' E 008°30'0 0.0
2016-Sep-26 15:33N 44°19' E 008°30'0 0.0
2016-Sep-26 13:33N 44°19' E 008°30'0 0.0
2016-Sep-26 11:33N 44°19' E 008°30'13 4.3
2016-Sep-26 08:33N 44°06' E 008°26'57 8.0
2016-Sep-26 01:28N 43°29' E 007°26'7 7.7
2016-Sep-26 00:33N 43°25' E 007°18'94 7.5
2016-Sep-25 12:04N 43°11' E 005°10'4 8.6
2016-Sep-25 11:33N 43°14' E 005°06'9 8.6
2016-Sep-25 10:33N 43°20' E 004°58'8 7.0
2016-Sep-25 09:29N 43°23' E 004°48'0 0.0
2016-Sep-24 19:21N 43°23' E 004°48'  
2016-Sep-20 14:22N 43°14' E 009°11'7 8.5
2016-Sep-20 13:33N 43°15' E 009°20'26 8.6
2016-Sep-20 10:33N 43°19' E 009°55'17 8.5
2016-Sep-20 08:33N 43°31' E 010°12'5 5.1
2016-Sep-20 07:33N 43°33' E 010°18'0 0.0
2016-Sep-20 06:22N 43°33' E 010°18'0 0.0
2016-Sep-20 02:28N 43°33' E 010°18'0 0.0
2016-Sep-19 23:28N 43°33' E 010°18'0 0.0
2016-Sep-19 19:31N 43°33' E 010°18'0 0.0
2016-Sep-19 18:31N 43°33' E 010°18'0 0.0
2016-Sep-19 16:33N 43°33' E 010°18'0 0.0
2016-Sep-19 14:33N 43°33' E 010°18'2 2.2
2016-Sep-19 13:33N 43°31' E 010°17'0 0.4
2016-Sep-19 12:32N 43°31' E 010°17'0 0.0
2016-Sep-19 11:32N 43°31' E 010°17'0 0.0
2016-Sep-19 09:32N 43°31' E 010°17'0 0.0
2016-Sep-19 07:32N 43°31' E 010°18'0 0.0
2016-Sep-19 06:32N 43°31' E 010°18'4 1.5
2016-Sep-19 03:33N 43°29' E 010°12'7 6.5
2016-Sep-19 02:33N 43°24' E 010°05'13 6.3
2016-Sep-19 00:33N 43°18' E 009°50'  
Track history (hours):
 
Tides and Currents Weather Stations Pressure Air Temp Water Temp Dewpoint Dewpoint Depression Visibility Wind Speed Wind Dir Waves Ship Positions

Laguepe

Last reported at 2016-Sep-28 08:33 UTC. Time now 2016-Sep-30 18:43 UTC.
Position N 43°09' E 005°14'.

Length 81 m; draft 3.2 m.

Type: Cargo ship. MMSI: 256681000.

Date/timePositionNaut miles runAvg speedWind from/ knotsBaromVisibWave heightAir tempDewpointWater temp
2016-Sep-28 08:33N 43°09' E 005°14'92 7.1
2016-Sep-27 19:33N 43°25' E 007°19'74 8.2
2016-Sep-27 10:33N 44°19' E 008°30'0 0.0
2016-Sep-27 00:33N 44°19' E 008°30'0 0.0
2016-Sep-26 20:33N 44°19' E 008°30'0 0.0
2016-Sep-26 19:33N 44°19' E 008°30'0 0.0
2016-Sep-26 15:33N 44°19' E 008°30'0 0.0
2016-Sep-26 13:33N 44°19' E 008°30'0 0.0
2016-Sep-26 11:33N 44°19' E 008°30'13 4.3
2016-Sep-26 08:33N 44°06' E 008°26'57 8.0
2016-Sep-26 01:28N 43°29' E 007°26'7 7.7
2016-Sep-26 00:33N 43°25' E 007°18'94 7.5
2016-Sep-25 12:04N 43°11' E 005°10'4 8.6
2016-Sep-25 11:33N 43°14' E 005°06'9 8.6
2016-Sep-25 10:33N 43°20' E 004°58'8 7.0
2016-Sep-25 09:29N 43°23' E 004°48'0 0.0
2016-Sep-24 19:21N 43°23' E 004°48'  
2016-Sep-20 14:22N 43°14' E 009°11'7 8.5
2016-Sep-20 13:33N 43°15' E 009°20'26 8.6
2016-Sep-20 10:33N 43°19' E 009°55'17 8.5
2016-Sep-20 08:33N 43°31' E 010°12'5 5.1
2016-Sep-20 07:33N 43°33' E 010°18'0 0.0
2016-Sep-20 06:22N 43°33' E 010°18'0 0.0
2016-Sep-20 02:28N 43°33' E 010°18'0 0.0
2016-Sep-19 23:28N 43°33' E 010°18'0 0.0
2016-Sep-19 19:31N 43°33' E 010°18'0 0.0
2016-Sep-19 18:31N 43°33' E 010°18'0 0.0
2016-Sep-19 16:33N 43°33' E 010°18'0 0.0
2016-Sep-19 14:33N 43°33' E 010°18'2 2.2
2016-Sep-19 13:33N 43°31' E 010°17'0 0.4
2016-Sep-19 12:32N 43°31' E 010°17'0 0.0
2016-Sep-19 11:32N 43°31' E 010°17'0 0.0
2016-Sep-19 09:32N 43°31' E 010°17'0 0.0
2016-Sep-19 07:32N 43°31' E 010°18'0 0.0
2016-Sep-19 06:32N 43°31' E 010°18'4 1.5
2016-Sep-19 03:33N 43°29' E 010°12'7 6.5
2016-Sep-19 02:33N 43°24' E 010°05'13 6.3
2016-Sep-19 00:33N 43°18' E 009°50'  

Dump ship's entire track history